sensor_id;sensor_type;location;lat;lon;timestamp;pressure;altitude;pressure_sealevel;temperature;humidity
28701;BME280;15877;52.344;16.790;2023-05-03T00:02:22;101564.27;;;13.80;55.50
28701;BME280;15877;52.344;16.790;2023-05-03T00:04:55;101563.69;;;13.82;55.33
28701;BME280;15877;52.344;16.790;2023-05-03T00:07:30;101568.30;;;13.79;55.21
28701;BME280;15877;52.344;16.790;2023-05-03T00:10:03;101569.77;;;13.83;55.17
28701;BME280;15877;52.344;16.790;2023-05-03T00:12:39;101574.11;;;13.78;55.10
28701;BME280;15877;52.344;16.790;2023-05-03T00:15:12;101574.85;;;13.76;55.06
28701;BME280;15877;52.344;16.790;2023-05-03T00:17:44;101575.08;;;13.73;55.32
28701;BME280;15877;52.344;16.790;2023-05-03T00:20:16;101579.40;;;13.65;55.59
28701;BME280;15877;52.344;16.790;2023-05-03T00:22:49;101580.77;;;13.62;55.89
28701;BME280;15877;52.344;16.790;2023-05-03T00:25:21;101573.30;;;13.61;55.74
28701;BME280;15877;52.344;16.790;2023-05-03T00:27:54;101572.20;;;13.58;55.60
28701;BME280;15877;52.344;16.790;2023-05-03T00:30:29;101569.86;;;13.57;55.34
28701;BME280;15877;52.344;16.790;2023-05-03T00:33:00;101569.61;;;13.49;55.97
28701;BME280;15877;52.344;16.790;2023-05-03T00:35:33;101564.08;;;13.44;56.11
28701;BME280;15877;52.344;16.790;2023-05-03T00:38:06;101567.29;;;13.45;55.73
28701;BME280;15877;52.344;16.790;2023-05-03T00:40:39;101566.48;;;13.39;55.64
28701;BME280;15877;52.344;16.790;2023-05-03T00:43:13;101561.99;;;13.38;55.41
28701;BME280;15877;52.344;16.790;2023-05-03T00:45:45;101566.38;;;13.35;55.01
28701;BME280;15877;52.344;16.790;2023-05-03T00:48:18;101568.58;;;13.26;55.08
28701;BME280;15877;52.344;16.790;2023-05-03T00:50:50;101570.27;;;13.13;55.19
28701;BME280;15877;52.344;16.790;2023-05-03T00:53:27;101568.95;;;13.10;55.36
28701;BME280;15877;52.344;16.790;2023-05-03T00:56:01;101569.31;;;13.06;55.35
28701;BME280;15877;52.344;16.790;2023-05-03T00:58:36;101572.29;;;13.03;55.52
28701;BME280;15877;52.344;16.790;2023-05-03T01:01:09;101569.27;;;13.04;55.37
28701;BME280;15877;52.344;16.790;2023-05-03T01:03:44;101569.30;;;12.95;55.68
28701;BME280;15877;52.344;16.790;2023-05-03T01:06:24;101565.95;;;12.91;55.66
28701;BME280;15877;52.344;16.790;2023-05-03T01:09:05;101571.40;;;12.91;55.31
28701;BME280;15877;52.344;16.790;2023-05-03T01:11:50;101578.50;;;12.84;55.48
28701;BME280;15877;52.344;16.790;2023-05-03T01:14:31;101580.70;;;12.75;55.51
28701;BME280;15877;52.344;16.790;2023-05-03T01:17:10;101567.48;;;12.68;55.33
28701;BME280;15877;52.344;16.790;2023-05-03T01:19:46;101587.71;;;12.75;55.14
28701;BME280;15877;52.344;16.790;2023-05-03T01:22:25;101591.52;;;12.70;55.18
28701;BME280;15877;52.344;16.790;2023-05-03T01:25:07;101590.97;;;12.66;55.37
28701;BME280;15877;52.344;16.790;2023-05-03T01:27:41;101594.33;;;12.61;55.50
28701;BME280;15877;52.344;16.790;2023-05-03T01:30:14;101596.58;;;12.61;55.48
28701;BME280;15877;52.344;16.790;2023-05-03T01:32:51;101599.42;;;12.63;55.58
28701;BME280;15877;52.344;16.790;2023-05-03T01:35:32;101602.98;;;12.57;55.84
28701;BME280;15877;52.344;16.790;2023-05-03T01:38:07;101599.27;;;12.53;56.09
28701;BME280;15877;52.344;16.790;2023-05-03T01:40:44;101603.18;;;12.44;56.27
28701;BME280;15877;52.344;16.790;2023-05-03T01:43:18;101604.58;;;12.41;56.38
28701;BME280;15877;52.344;16.790;2023-05-03T01:45:53;101604.48;;;12.47;56.11
28701;BME280;15877;52.344;16.790;2023-05-03T01:48:26;101606.84;;;12.41;56.47
28701;BME280;15877;52.344;16.790;2023-05-03T01:50:59;101602.75;;;12.40;56.43
28701;BME280;15877;52.344;16.790;2023-05-03T01:53:31;101596.56;;;12.34;56.58
28701;BME280;15877;52.344;16.790;2023-05-03T01:56:05;101598.60;;;12.38;56.47
28701;BME280;15877;52.344;16.790;2023-05-03T01:58:38;101599.13;;;12.35;56.67
28701;BME280;15877;52.344;16.790;2023-05-03T02:01:10;101601.55;;;12.38;56.50
28701;BME280;15877;52.344;16.790;2023-05-03T02:03:43;101600.86;;;12.34;56.56
28701;BME280;15877;52.344;16.790;2023-05-03T02:06:16;101597.77;;;12.32;56.47
28701;BME280;15877;52.344;16.790;2023-05-03T02:08:48;101605.17;;;12.35;56.48
28701;BME280;15877;52.344;16.790;2023-05-03T02:11:21;101601.71;;;12.34;56.38
28701;BME280;15877;52.344;16.790;2023-05-03T02:13:53;101600.73;;;12.30;56.57
28701;BME280;15877;52.344;16.790;2023-05-03T02:16:26;101599.59;;;12.20;57.00
28701;BME280;15877;52.344;16.790;2023-05-03T02:19:00;101580.80;;;12.06;57.04
28701;BME280;15877;52.344;16.790;2023-05-03T02:21:33;101594.35;;;12.22;56.77
28701;BME280;15877;52.344;16.790;2023-05-03T02:24:07;101595.80;;;12.16;57.22
28701;BME280;15877;52.344;16.790;2023-05-03T02:26:39;101595.29;;;12.20;57.00
28701;BME280;15877;52.344;16.790;2023-05-03T02:29:13;101592.40;;;12.19;56.98
28701;BME280;15877;52.344;16.790;2023-05-03T02:31:45;101600.79;;;12.19;57.05
28701;BME280;15877;52.344;16.790;2023-05-03T02:34:18;101595.41;;;12.16;57.00
28701;BME280;15877;52.344;16.790;2023-05-03T02:36:50;101581.65;;;12.00;57.54
28701;BME280;15877;52.344;16.790;2023-05-03T02:39:24;101599.52;;;12.09;57.83
28701;BME280;15877;52.344;16.790;2023-05-03T02:41:56;101597.06;;;12.07;58.01
28701;BME280;15877;52.344;16.790;2023-05-03T02:44:30;101598.73;;;12.04;58.32
28701;BME280;15877;52.344;16.790;2023-05-03T02:47:04;101599.95;;;12.00;58.43
28701;BME280;15877;52.344;16.790;2023-05-03T02:49:37;101599.97;;;11.99;58.28
28701;BME280;15877;52.344;16.790;2023-05-03T02:52:10;101600.67;;;11.96;58.55
28701;BME280;15877;52.344;16.790;2023-05-03T02:54:42;101600.83;;;11.94;58.55
28701;BME280;15877;52.344;16.790;2023-05-03T02:57:17;101608.02;;;11.90;58.92
28701;BME280;15877;52.344;16.790;2023-05-03T02:59:49;101611.92;;;11.88;58.99
28701;BME280;15877;52.344;16.790;2023-05-03T03:02:23;101608.79;;;11.85;59.22
28701;BME280;15877;52.344;16.790;2023-05-03T03:04:56;101611.74;;;11.83;59.33
28701;BME280;15877;52.344;16.790;2023-05-03T03:07:30;101616.56;;;11.84;59.33
28701;BME280;15877;52.344;16.790;2023-05-03T03:10:02;101611.86;;;11.82;59.12
28701;BME280;15877;52.344;16.790;2023-05-03T03:12:35;101614.21;;;11.83;59.64
28701;BME280;15877;52.344;16.790;2023-05-03T03:15:10;101616.90;;;11.82;59.82
28701;BME280;15877;52.344;16.790;2023-05-03T03:17:42;101616.23;;;11.81;59.74
28701;BME280;15877;52.344;16.790;2023-05-03T03:20:14;101614.47;;;11.86;58.98
28701;BME280;15877;52.344;16.790;2023-05-03T03:22:48;101621.40;;;11.90;58.73
28701;BME280;15877;52.344;16.790;2023-05-03T03:25:20;101614.45;;;11.89;58.37
28701;BME280;15877;52.344;16.790;2023-05-03T03:27:53;101625.24;;;11.86;58.58
28701;BME280;15877;52.344;16.790;2023-05-03T03:30:26;101624.98;;;11.86;59.07
28701;BME280;15877;52.344;16.790;2023-05-03T03:33:04;101622.08;;;11.89;58.81
28701;BME280;15877;52.344;16.790;2023-05-03T03:35:40;101626.46;;;11.89;59.07
28701;BME280;15877;52.344;16.790;2023-05-03T03:38:12;101618.46;;;11.86;58.60
28701;BME280;15877;52.344;16.790;2023-05-03T03:40:50;101628.89;;;11.95;58.89
28701;BME280;15877;52.344;16.790;2023-05-03T03:43:24;101629.08;;;11.96;58.57
28701;BME280;15877;52.344;16.790;2023-05-03T03:45:58;101630.13;;;12.01;58.37
28701;BME280;15877;52.344;16.790;2023-05-03T03:48:31;101632.52;;;12.03;58.41
28701;BME280;15877;52.344;16.790;2023-05-03T03:51:03;101635.91;;;12.02;58.34
28701;BME280;15877;52.344;16.790;2023-05-03T03:53:39;101632.67;;;11.96;59.33
28701;BME280;15877;52.344;16.790;2023-05-03T03:56:12;101626.80;;;11.90;59.49
28701;BME280;15877;52.344;16.790;2023-05-03T03:58:45;101639.86;;;11.99;59.86
28701;BME280;15877;52.344;16.790;2023-05-03T04:01:18;101647.53;;;12.07;59.38
28701;BME280;15877;52.344;16.790;2023-05-03T04:03:51;101646.85;;;12.05;58.94
28701;BME280;15877;52.344;16.790;2023-05-03T04:06:24;101650.52;;;12.01;59.70
28701;BME280;15877;52.344;16.790;2023-05-03T04:08:58;101653.52;;;12.07;59.72
28701;BME280;15877;52.344;16.790;2023-05-03T04:11:31;101658.23;;;12.17;58.80
28701;BME280;15877;52.344;16.790;2023-05-03T04:14:05;101659.89;;;12.14;59.40
28701;BME280;15877;52.344;16.790;2023-05-03T04:16:37;101668.11;;;12.21;58.96
28701;BME280;15877;52.344;16.790;2023-05-03T04:19:10;101674.29;;;12.23;58.88
28701;BME280;15877;52.344;16.790;2023-05-03T04:21:44;101668.58;;;12.18;58.90
28701;BME280;15877;52.344;16.790;2023-05-03T04:24:17;101680.38;;;12.21;59.13
28701;BME280;15877;52.344;16.790;2023-05-03T04:26:49;101679.44;;;12.17;59.66
28701;BME280;15877;52.344;16.790;2023-05-03T04:29:28;101683.42;;;12.20;59.99
28701;BME280;15877;52.344;16.790;2023-05-03T04:32:01;101673.77;;;12.17;59.58
28701;BME280;15877;52.344;16.790;2023-05-03T04:34:33;101689.23;;;12.29;59.62
28701;BME280;15877;52.344;16.790;2023-05-03T04:37:06;101691.39;;;12.32;59.10
28701;BME280;15877;52.344;16.790;2023-05-03T04:39:42;101695.27;;;12.38;59.04
28701;BME280;15877;52.344;16.790;2023-05-03T04:42:15;101698.34;;;12.32;59.15
28701;BME280;15877;52.344;16.790;2023-05-03T04:44:48;101702.21;;;12.29;59.42
28701;BME280;15877;52.344;16.790;2023-05-03T04:47:21;101705.41;;;12.30;59.33
28701;BME280;15877;52.344;16.790;2023-05-03T04:49:56;101704.50;;;12.24;59.39
28701;BME280;15877;52.344;16.790;2023-05-03T04:52:28;101705.48;;;12.24;59.50
28701;BME280;15877;52.344;16.790;2023-05-03T04:55:00;101707.52;;;12.29;59.56
28701;BME280;15877;52.344;16.790;2023-05-03T04:57:34;101714.36;;;12.28;59.71
28701;BME280;15877;52.344;16.790;2023-05-03T05:00:10;101718.07;;;12.34;59.61
28701;BME280;15877;52.344;16.790;2023-05-03T05:02:46;101711.54;;;12.30;59.50
28701;BME280;15877;52.344;16.790;2023-05-03T05:05:19;101714.49;;;12.25;60.00
28701;BME280;15877;52.344;16.790;2023-05-03T05:07:52;101712.58;;;12.30;59.53
28701;BME280;15877;52.344;16.790;2023-05-03T05:10:25;101707.40;;;12.20;59.57
28701;BME280;15877;52.344;16.790;2023-05-03T05:12:59;101708.63;;;12.21;59.39
28701;BME280;15877;52.344;16.790;2023-05-03T05:15:31;101718.69;;;12.20;59.69
28701;BME280;15877;52.344;16.790;2023-05-03T05:18:03;101725.09;;;12.30;59.21
28701;BME280;15877;52.344;16.790;2023-05-03T05:20:37;101730.92;;;12.31;59.27
28701;BME280;15877;52.344;16.790;2023-05-03T05:23:09;101734.52;;;12.29;59.49
28701;BME280;15877;52.344;16.790;2023-05-03T05:25:44;101735.64;;;12.34;59.42
28701;BME280;15877;52.344;16.790;2023-05-03T05:28:16;101744.84;;;12.32;59.07
28701;BME280;15877;52.344;16.790;2023-05-03T05:30:49;101743.48;;;12.37;59.10
28701;BME280;15877;52.344;16.790;2023-05-03T05:33:22;101746.98;;;12.32;58.96
28701;BME280;15877;52.344;16.790;2023-05-03T05:35:55;101748.79;;;12.27;59.12
28701;BME280;15877;52.344;16.790;2023-05-03T05:38:28;101737.75;;;12.24;59.21
28701;BME280;15877;52.344;16.790;2023-05-03T05:41:01;101752.45;;;12.38;59.09
28701;BME280;15877;52.344;16.790;2023-05-03T05:43:36;101753.92;;;12.41;58.79
28701;BME280;15877;52.344;16.790;2023-05-03T05:46:09;101751.83;;;12.34;58.15
28701;BME280;15877;52.344;16.790;2023-05-03T05:48:41;101755.75;;;12.33;57.99
28701;BME280;15877;52.344;16.790;2023-05-03T05:51:14;101757.20;;;12.44;58.13
28701;BME280;15877;52.344;16.790;2023-05-03T05:53:47;101757.52;;;12.49;57.76
28701;BME280;15877;52.344;16.790;2023-05-03T05:56:20;101762.89;;;12.52;57.54
28701;BME280;15877;52.344;16.790;2023-05-03T05:58:53;101753.52;;;12.46;57.05
28701;BME280;15877;52.344;16.790;2023-05-03T06:01:27;101759.61;;;12.40;57.03
28701;BME280;15877;52.344;16.790;2023-05-03T06:04:00;101766.96;;;12.48;56.78
28701;BME280;15877;52.344;16.790;2023-05-03T06:06:33;101768.67;;;12.51;56.94
28701;BME280;15877;52.344;16.790;2023-05-03T06:09:05;101766.47;;;12.63;56.69
28701;BME280;15877;52.344;16.790;2023-05-03T06:11:54;101775.44;;;12.64;56.77
28701;BME280;15877;52.344;16.790;2023-05-03T06:14:28;101778.65;;;12.72;56.65
28701;BME280;15877;52.344;16.790;2023-05-03T06:17:00;101776.93;;;12.80;56.18
28701;BME280;15877;52.344;16.790;2023-05-03T06:19:34;101768.76;;;12.69;56.04
28701;BME280;15877;52.344;16.790;2023-05-03T06:22:07;101779.60;;;12.79;56.14
28701;BME280;15877;52.344;16.790;2023-05-03T06:24:39;101785.12;;;12.84;56.61
28701;BME280;15877;52.344;16.790;2023-05-03T06:27:12;101782.73;;;12.86;56.81
28701;BME280;15877;52.344;16.790;2023-05-03T06:29:44;101787.88;;;12.94;57.21
28701;BME280;15877;52.344;16.790;2023-05-03T06:32:17;101788.85;;;13.04;56.21
28701;BME280;15877;52.344;16.790;2023-05-03T06:34:51;101786.14;;;13.08;55.03
28701;BME280;15877;52.344;16.790;2023-05-03T06:37:24;101791.48;;;13.08;53.82
28701;BME280;15877;52.344;16.790;2023-05-03T06:39:57;101773.13;;;13.03;54.40
28701;BME280;15877;52.344;16.790;2023-05-03T06:42:29;101788.34;;;13.19;54.59
28701;BME280;15877;52.344;16.790;2023-05-03T06:45:10;101788.56;;;13.31;54.30
28701;BME280;15877;52.344;16.790;2023-05-03T06:47:42;101783.77;;;13.35;54.17
28701;BME280;15877;52.344;16.790;2023-05-03T06:50:15;101787.29;;;13.40;54.71
28701;BME280;15877;52.344;16.790;2023-05-03T06:52:47;101789.56;;;13.46;54.04
28701;BME280;15877;52.344;16.790;2023-05-03T06:55:20;101791.46;;;13.49;53.93
28701;BME280;15877;52.344;16.790;2023-05-03T06:57:52;101792.95;;;13.50;53.84
28701;BME280;15877;52.344;16.790;2023-05-03T07:00:25;101795.86;;;13.51;54.73
28701;BME280;15877;52.344;16.790;2023-05-03T07:02:57;101791.91;;;13.36;55.94
28701;BME280;15877;52.344;16.790;2023-05-03T07:05:30;101792.28;;;13.16;56.83
28701;BME280;15877;52.344;16.790;2023-05-03T07:08:03;101791.42;;;13.30;56.86
28701;BME280;15877;52.344;16.790;2023-05-03T07:10:36;101781.35;;;13.42;56.05
28701;BME280;15877;52.344;16.790;2023-05-03T07:13:08;101794.35;;;13.44;56.00
28701;BME280;15877;52.344;16.790;2023-05-03T07:15:41;101792.58;;;13.39;54.31
28701;BME280;15877;52.344;16.790;2023-05-03T07:18:15;101796.03;;;13.60;53.08
28701;BME280;15877;52.344;16.790;2023-05-03T07:20:48;101792.69;;;13.75;52.44
28701;BME280;15877;52.344;16.790;2023-05-03T07:23:21;101793.02;;;13.78;51.16
28701;BME280;15877;52.344;16.790;2023-05-03T07:25:54;101782.08;;;13.73;51.09
28701;BME280;15877;52.344;16.790;2023-05-03T07:28:26;101791.34;;;13.63;51.75
28701;BME280;15877;52.344;16.790;2023-05-03T07:30:58;101781.42;;;13.59;52.46
28701;BME280;15877;52.344;16.790;2023-05-03T07:33:32;101775.47;;;13.68;50.37
28701;BME280;15877;52.344;16.790;2023-05-03T07:36:05;101789.42;;;13.91;48.69
28701;BME280;15877;52.344;16.790;2023-05-03T07:38:37;101795.25;;;13.70;48.99
28701;BME280;15877;52.344;16.790;2023-05-03T07:41:10;101795.88;;;14.12;47.13
28701;BME280;15877;52.344;16.790;2023-05-03T07:43:43;101798.98;;;14.01;46.80
28701;BME280;15877;52.344;16.790;2023-05-03T07:46:18;101801.63;;;14.01;46.93
28701;BME280;15877;52.344;16.790;2023-05-03T07:48:50;101775.01;;;14.02;46.06
28701;BME280;15877;52.344;16.790;2023-05-03T07:51:22;101800.69;;;14.05;44.46
28701;BME280;15877;52.344;16.790;2023-05-03T07:53:56;101801.70;;;14.11;44.67
28701;BME280;15877;52.344;16.790;2023-05-03T07:56:29;101799.11;;;14.21;44.54
28701;BME280;15877;52.344;16.790;2023-05-03T07:59:01;101801.64;;;14.35;44.97
28701;BME280;15877;52.344;16.790;2023-05-03T08:01:40;101795.80;;;14.39;43.75
28701;BME280;15877;52.344;16.790;2023-05-03T08:04:12;101793.91;;;14.45;42.83
28701;BME280;15877;52.344;16.790;2023-05-03T08:06:45;101793.41;;;14.23;42.15
28701;BME280;15877;52.344;16.790;2023-05-03T08:09:17;101797.53;;;14.25;42.24
28701;BME280;15877;52.344;16.790;2023-05-03T08:11:50;101798.95;;;14.45;41.52
28701;BME280;15877;52.344;16.790;2023-05-03T08:14:22;101798.98;;;14.67;41.44
28701;BME280;15877;52.344;16.790;2023-05-03T08:16:54;101796.27;;;14.61;41.43
28701;BME280;15877;52.344;16.790;2023-05-03T08:19:27;101795.61;;;14.63;41.24
28701;BME280;15877;52.344;16.790;2023-05-03T08:21:59;101795.51;;;14.77;40.89
28701;BME280;15877;52.344;16.790;2023-05-03T08:24:33;101793.20;;;14.87;40.40
28701;BME280;15877;52.344;16.790;2023-05-03T08:27:05;101794.10;;;14.79;40.04
28701;BME280;15877;52.344;16.790;2023-05-03T08:29:38;101786.17;;;14.61;39.23
28701;BME280;15877;52.344;16.790;2023-05-03T08:32:10;101793.16;;;14.86;38.95
28701;BME280;15877;52.344;16.790;2023-05-03T08:34:42;101792.23;;;15.05;39.20
28701;BME280;15877;52.344;16.790;2023-05-03T08:37:14;101799.30;;;14.88;41.29
28701;BME280;15877;52.344;16.790;2023-05-03T08:39:47;101795.71;;;14.83;41.55
28701;BME280;15877;52.344;16.790;2023-05-03T08:42:19;101798.39;;;14.92;42.62
28701;BME280;15877;52.344;16.790;2023-05-03T08:44:55;101795.24;;;15.07;40.66
28701;BME280;15877;52.344;16.790;2023-05-03T08:47:27;101794.51;;;15.28;40.64
28701;BME280;15877;52.344;16.790;2023-05-03T08:50:04;101801.56;;;15.48;40.47
28701;BME280;15877;52.344;16.790;2023-05-03T08:52:37;101800.52;;;15.64;39.81
28701;BME280;15877;52.344;16.790;2023-05-03T08:55:11;101782.77;;;15.65;39.32
28701;BME280;15877;52.344;16.790;2023-05-03T08:57:43;101797.76;;;15.83;39.28
28701;BME280;15877;52.344;16.790;2023-05-03T09:00:17;101800.39;;;15.90;39.36
28701;BME280;15877;52.344;16.790;2023-05-03T09:02:49;101801.02;;;15.82;39.51
28701;BME280;15877;52.344;16.790;2023-05-03T09:05:35;101800.04;;;15.75;39.72
28701;BME280;15877;52.344;16.790;2023-05-03T09:08:12;101800.33;;;15.77;39.41
28701;BME280;15877;52.344;16.790;2023-05-03T09:10:44;101800.60;;;15.75;39.86
28701;BME280;15877;52.344;16.790;2023-05-03T09:13:17;101801.67;;;15.83;40.05
28701;BME280;15877;52.344;16.790;2023-05-03T09:15:54;101803.61;;;15.88;39.78
28701;BME280;15877;52.344;16.790;2023-05-03T09:18:27;101802.77;;;15.89;39.88
28701;BME280;15877;52.344;16.790;2023-05-03T09:21:00;101802.59;;;15.92;40.26
28701;BME280;15877;52.344;16.790;2023-05-03T09:23:32;101800.74;;;16.00;41.01
28701;BME280;15877;52.344;16.790;2023-05-03T09:26:05;101805.25;;;16.00;41.42
28701;BME280;15877;52.344;16.790;2023-05-03T09:28:42;101804.99;;;16.00;40.86
28701;BME280;15877;52.344;16.790;2023-05-03T09:31:14;101802.38;;;16.16;40.13
28701;BME280;15877;52.344;16.790;2023-05-03T09:33:47;101796.47;;;16.40;40.52
28701;BME280;15877;52.344;16.790;2023-05-03T09:36:19;101796.04;;;16.53;39.04
28701;BME280;15877;52.344;16.790;2023-05-03T09:38:52;101792.44;;;16.70;38.99
28701;BME280;15877;52.344;16.790;2023-05-03T09:41:30;101793.20;;;16.85;39.33
28701;BME280;15877;52.344;16.790;2023-05-03T09:44:02;101789.75;;;16.72;39.81
28701;BME280;15877;52.344;16.790;2023-05-03T09:46:35;101795.89;;;16.62;39.29
28701;BME280;15877;52.344;16.790;2023-05-03T09:49:08;101797.16;;;16.49;38.71
28701;BME280;15877;52.344;16.790;2023-05-03T09:51:40;101794.70;;;16.51;38.99
28701;BME280;15877;52.344;16.790;2023-05-03T09:54:14;101799.64;;;16.61;38.47
28701;BME280;15877;52.344;16.790;2023-05-03T09:56:46;101796.14;;;16.58;39.20
28701;BME280;15877;52.344;16.790;2023-05-03T09:59:19;101794.90;;;16.57;39.05
28701;BME280;15877;52.344;16.790;2023-05-03T10:01:54;101791.41;;;16.93;38.25
28701;BME280;15877;52.344;16.790;2023-05-03T10:04:28;101792.55;;;17.08;38.04
28701;BME280;15877;52.344;16.790;2023-05-03T10:07:06;101784.60;;;17.32;37.72
28701;BME280;15877;52.344;16.790;2023-05-03T10:09:44;101783.18;;;17.57;38.56
28701;BME280;15877;52.344;16.790;2023-05-03T10:12:16;101783.95;;;17.77;37.70
28701;BME280;15877;52.344;16.790;2023-05-03T10:14:50;101782.89;;;17.87;37.43
28701;BME280;15877;52.344;16.790;2023-05-03T10:17:26;101780.49;;;17.76;37.91
28701;BME280;15877;52.344;16.790;2023-05-03T10:20:26;101782.09;;;17.59;37.93
28701;BME280;15877;52.344;16.790;2023-05-03T10:23:09;101784.48;;;17.44;38.40
28701;BME280;15877;52.344;16.790;2023-05-03T10:26:14;101780.55;;;17.34;39.10
28701;BME280;15877;52.344;16.790;2023-05-03T10:28:48;101779.29;;;17.41;38.12
28701;BME280;15877;52.344;16.790;2023-05-03T10:31:44;101778.02;;;17.55;37.35
28701;BME280;15877;52.344;16.790;2023-05-03T10:34:22;101779.27;;;17.69;37.35
28701;BME280;15877;52.344;16.790;2023-05-03T10:36:54;101775.73;;;17.92;36.97
28701;BME280;15877;52.344;16.790;2023-05-03T10:39:28;101774.74;;;18.15;36.85
28701;BME280;15877;52.344;16.790;2023-05-03T10:42:03;101769.96;;;18.38;36.25
28701;BME280;15877;52.344;16.790;2023-05-03T10:44:50;101773.94;;;18.34;38.05
28701;BME280;15877;52.344;16.790;2023-05-03T10:47:23;101775.90;;;18.24;37.94
28701;BME280;15877;52.344;16.790;2023-05-03T10:50:26;101775.15;;;18.08;36.99
28701;BME280;15877;52.344;16.790;2023-05-03T10:52:59;101774.91;;;17.79;36.99
28701;BME280;15877;52.344;16.790;2023-05-03T10:55:31;101774.70;;;17.58;36.28
28701;BME280;15877;52.344;16.790;2023-05-03T10:58:05;101776.79;;;17.53;37.41
28701;BME280;15877;52.344;16.790;2023-05-03T11:00:44;101775.16;;;17.53;38.14
28701;BME280;15877;52.344;16.790;2023-05-03T11:03:35;101772.19;;;17.85;37.45
28701;BME280;15877;52.344;16.790;2023-05-03T11:06:10;101774.13;;;17.98;36.80
28701;BME280;15877;52.344;16.790;2023-05-03T11:08:57;101772.42;;;18.09;36.24
28701;BME280;15877;52.344;16.790;2023-05-03T11:11:29;101767.77;;;18.29;35.06
28701;BME280;15877;52.344;16.790;2023-05-03T11:14:02;101767.64;;;18.45;36.26
28701;BME280;15877;52.344;16.790;2023-05-03T11:16:35;101780.33;;;18.30;37.11
28701;BME280;15877;52.344;16.790;2023-05-03T11:19:10;101778.80;;;17.99;37.84
28701;BME280;15877;52.344;16.790;2023-05-03T11:21:43;101780.54;;;17.91;38.01
28701;BME280;15877;52.344;16.790;2023-05-03T11:24:16;101775.86;;;17.72;39.48
28701;BME280;15877;52.344;16.790;2023-05-03T11:26:48;101776.16;;;17.65;39.58
28701;BME280;15877;52.344;16.790;2023-05-03T11:29:21;101781.38;;;17.60;39.81
28701;BME280;15877;52.344;16.790;2023-05-03T11:31:55;101781.17;;;17.48;40.22
28701;BME280;15877;52.344;16.790;2023-05-03T11:34:28;101785.84;;;17.48;39.62
28701;BME280;15877;52.344;16.790;2023-05-03T11:37:00;101781.52;;;17.44;40.57
28701;BME280;15877;52.344;16.790;2023-05-03T11:39:34;101782.77;;;17.37;39.12
28701;BME280;15877;52.344;16.790;2023-05-03T11:42:07;101780.45;;;17.38;38.33
28701;BME280;15877;52.344;16.790;2023-05-03T11:44:39;101776.60;;;17.38;37.94
28701;BME280;15877;52.344;16.790;2023-05-03T11:47:11;101773.45;;;17.72;36.97
28701;BME280;15877;52.344;16.790;2023-05-03T11:49:52;101757.13;;;17.89;37.12
28701;BME280;15877;52.344;16.790;2023-05-03T11:52:26;101771.52;;;18.20;36.83
28701;BME280;15877;52.344;16.790;2023-05-03T11:54:58;101756.33;;;18.38;36.08
28701;BME280;15877;52.344;16.790;2023-05-03T11:57:34;101773.27;;;18.74;35.32
28701;BME280;15877;52.344;16.790;2023-05-03T12:00:14;101776.20;;;18.70;35.17
28701;BME280;15877;52.344;16.790;2023-05-03T12:02:49;101777.00;;;18.77;35.42
28701;BME280;15877;52.344;16.790;2023-05-03T12:05:22;101778.45;;;18.61;36.68
28701;BME280;15877;52.344;16.790;2023-05-03T12:07:55;101774.04;;;18.22;35.46
28701;BME280;15877;52.344;16.790;2023-05-03T12:10:32;101759.76;;;17.93;34.94
28701;BME280;15877;52.344;16.790;2023-05-03T12:13:06;101774.48;;;17.95;36.18
28701;BME280;15877;52.344;16.790;2023-05-03T12:15:39;101776.52;;;17.96;36.85
28701;BME280;15877;52.344;16.790;2023-05-03T12:18:13;101771.48;;;18.24;35.97
28701;BME280;15877;52.344;16.790;2023-05-03T12:20:55;101768.77;;;18.39;37.40
28701;BME280;15877;52.344;16.790;2023-05-03T12:23:31;101766.39;;;18.41;38.54
28701;BME280;15877;52.344;16.790;2023-05-03T12:26:04;101771.46;;;18.36;37.52
28701;BME280;15877;52.344;16.790;2023-05-03T12:28:39;101769.94;;;18.42;36.67
28701;BME280;15877;52.344;16.790;2023-05-03T12:31:12;101767.51;;;18.34;38.26
28701;BME280;15877;52.344;16.790;2023-05-03T12:33:48;101771.99;;;18.13;37.61
28701;BME280;15877;52.344;16.790;2023-05-03T12:36:40;101771.09;;;17.76;36.73
28701;BME280;15877;52.344;16.790;2023-05-03T12:39:14;101771.96;;;17.69;36.77
28701;BME280;15877;52.344;16.790;2023-05-03T12:41:46;101768.48;;;17.73;36.58
28701;BME280;15877;52.344;16.790;2023-05-03T12:44:22;101767.13;;;17.98;36.83
28701;BME280;15877;52.344;16.790;2023-05-03T12:46:58;101749.12;;;18.16;37.15
28701;BME280;15877;52.344;16.790;2023-05-03T12:49:31;101757.95;;;18.54;35.87
28701;BME280;15877;52.344;16.790;2023-05-03T12:52:08;101758.35;;;18.78;37.13
28701;BME280;15877;52.344;16.790;2023-05-03T12:55:01;101755.52;;;19.12;34.99
28701;BME280;15877;52.344;16.790;2023-05-03T12:57:34;101755.98;;;19.40;35.51
28701;BME280;15877;52.344;16.790;2023-05-03T13:00:09;101758.09;;;19.64;35.14
28701;BME280;15877;52.344;16.790;2023-05-03T13:02:45;101751.99;;;19.44;35.10
28701;BME280;15877;52.344;16.790;2023-05-03T13:05:21;101750.66;;;19.35;35.37
28701;BME280;15877;52.344;16.790;2023-05-03T13:08:04;101752.34;;;19.34;35.99
28701;BME280;15877;52.344;16.790;2023-05-03T13:10:41;101739.89;;;19.19;36.28
28701;BME280;15877;52.344;16.790;2023-05-03T13:13:14;101751.11;;;19.15;35.92
28701;BME280;15877;52.344;16.790;2023-05-03T13:15:46;101746.00;;;19.20;35.83
28701;BME280;15877;52.344;16.790;2023-05-03T13:18:19;101744.44;;;19.06;35.40